sensor_id;sensor_type;location;lat;lon;timestamp;P1;durP1;ratioP1;P2;durP2;ratioP2
74042;SDS011;62384;53.600;10.040;2022-12-31T00:01:00;9.13;;;5.00;;
74042;SDS011;62384;53.600;10.040;2022-12-31T00:03:26;10.43;;;4.38;;
74042;SDS011;62384;53.600;10.040;2022-12-31T00:05:51;10.45;;;5.50;;
74042;SDS011;62384;53.600;10.040;2022-12-31T00:08:17;10.68;;;4.80;;
74042;SDS011;62384;53.600;10.040;2022-12-31T00:10:42;9.48;;;5.35;;
74042;SDS011;62384;53.600;10.040;2022-12-31T00:13:08;11.05;;;5.00;;
74042;SDS011;62384;53.600;10.040;2022-12-31T00:15:34;9.80;;;4.95;;
74042;SDS011;62384;53.600;10.040;2022-12-31T00:17:59;9.30;;;5.00;;
74042;SDS011;62384;53.600;10.040;2022-12-31T00:20:25;11.05;;;6.20;;
74042;SDS011;62384;53.600;10.040;2022-12-31T00:22:50;8.93;;;5.57;;
74042;SDS011;62384;53.600;10.040;2022-12-31T00:25:15;11.07;;;5.50;;
74042;SDS011;62384;53.600;10.040;2022-12-31T00:27:41;10.55;;;5.43;;
74042;SDS011;62384;53.600;10.040;2022-12-31T00:30:06;12.70;;;5.93;;
74042;SDS011;62384;53.600;10.040;2022-12-31T00:32:32;10.50;;;6.00;;
74042;SDS011;62384;53.600;10.040;2022-12-31T00:34:57;11.07;;;5.75;;
74042;SDS011;62384;53.600;10.040;2022-12-31T00:37:22;13.05;;;5.82;;
74042;SDS011;62384;53.600;10.040;2022-12-31T00:39:48;12.02;;;5.50;;
74042;SDS011;62384;53.600;10.040;2022-12-31T00:42:13;8.45;;;5.28;;
74042;SDS011;62384;53.600;10.040;2022-12-31T00:44:38;10.15;;;5.38;;
74042;SDS011;62384;53.600;10.040;2022-12-31T00:47:03;8.43;;;4.97;;
74042;SDS011;62384;53.600;10.040;2022-12-31T00:49:29;9.25;;;4.60;;
74042;SDS011;62384;53.600;10.040;2022-12-31T00:51:54;10.55;;;5.30;;
74042;SDS011;62384;53.600;10.040;2022-12-31T00:54:19;11.77;;;5.18;;
74042;SDS011;62384;53.600;10.040;2022-12-31T00:56:44;9.80;;;4.95;;
74042;SDS011;62384;53.600;10.040;2022-12-31T00:59:09;7.05;;;4.75;;
74042;SDS011;62384;53.600;10.040;2022-12-31T01:01:36;9.70;;;5.20;;
74042;SDS011;62384;53.600;10.040;2022-12-31T01:04:08;9.23;;;4.53;;
74042;SDS011;62384;53.600;10.040;2022-12-31T01:06:35;7.97;;;5.05;;
74042;SDS011;62384;53.600;10.040;2022-12-31T01:09:00;9.15;;;4.15;;
74042;SDS011;62384;53.600;10.040;2022-12-31T01:11:26;6.32;;;3.75;;
74042;SDS011;62384;53.600;10.040;2022-12-31T01:16:31;7.82;;;3.63;;
74042;SDS011;62384;53.600;10.040;2022-12-31T01:19:01;6.28;;;3.47;;
74042;SDS011;62384;53.600;10.040;2022-12-31T01:21:29;8.90;;;3.78;;
74042;SDS011;62384;53.600;10.040;2022-12-31T01:23:56;7.45;;;3.80;;
74042;SDS011;62384;53.600;10.040;2022-12-31T01:26:22;6.72;;;3.90;;
74042;SDS011;62384;53.600;10.040;2022-12-31T01:28:48;7.22;;;4.20;;
74042;SDS011;62384;53.600;10.040;2022-12-31T01:31:14;7.80;;;4.15;;
74042;SDS011;62384;53.600;10.040;2022-12-31T01:33:40;10.02;;;4.20;;
74042;SDS011;62384;53.600;10.040;2022-12-31T01:36:07;8.50;;;4.60;;
74042;SDS011;62384;53.600;10.040;2022-12-31T01:38:38;7.68;;;4.07;;
74042;SDS011;62384;53.600;10.040;2022-12-31T01:41:04;7.65;;;3.75;;
74042;SDS011;62384;53.600;10.040;2022-12-31T01:43:43;8.90;;;3.50;;
74042;SDS011;62384;53.600;10.040;2022-12-31T01:49:07;5.07;;;3.40;;
74042;SDS011;62384;53.600;10.040;2022-12-31T01:51:37;8.45;;;4.40;;
74042;SDS011;62384;53.600;10.040;2022-12-31T01:54:05;9.95;;;4.45;;
74042;SDS011;62384;53.600;10.040;2022-12-31T01:56:32;7.22;;;4.47;;
74042;SDS011;62384;53.600;10.040;2022-12-31T01:58:59;7.00;;;4.53;;
74042;SDS011;62384;53.600;10.040;2022-12-31T02:01:27;7.82;;;4.28;;
74042;SDS011;62384;53.600;10.040;2022-12-31T02:03:54;9.95;;;4.25;;
74042;SDS011;62384;53.600;10.040;2022-12-31T02:06:25;8.40;;;5.00;;
74042;SDS011;62384;53.600;10.040;2022-12-31T02:08:55;7.45;;;3.97;;
74042;SDS011;62384;53.600;10.040;2022-12-31T02:13:56;7.50;;;4.13;;
74042;SDS011;62384;53.600;10.040;2022-12-31T02:16:31;10.90;;;4.45;;
74042;SDS011;62384;53.600;10.040;2022-12-31T02:24:53;9.07;;;4.30;;
74042;SDS011;62384;53.600;10.040;2022-12-31T02:30:19;6.28;;;4.80;;
74042;SDS011;62384;53.600;10.040;2022-12-31T02:33:03;9.05;;;4.63;;
74042;SDS011;62384;53.600;10.040;2022-12-31T02:35:51;6.20;;;3.50;;
74042;SDS011;62384;53.600;10.040;2022-12-31T02:38:24;5.28;;;3.60;;
74042;SDS011;62384;53.600;10.040;2022-12-31T02:40:54;8.23;;;3.70;;
74042;SDS011;62384;53.600;10.040;2022-12-31T02:43:20;9.75;;;4.25;;
74042;SDS011;62384;53.600;10.040;2022-12-31T02:45:46;4.68;;;2.75;;
74042;SDS011;62384;53.600;10.040;2022-12-31T02:48:42;5.72;;;4.47;;
74042;SDS011;62384;53.600;10.040;2022-12-31T02:51:30;7.45;;;3.78;;
74042;SDS011;62384;53.600;10.040;2022-12-31T02:59:52;6.75;;;3.20;;
74042;SDS011;62384;53.600;10.040;2022-12-31T03:02:49;5.30;;;3.17;;
74042;SDS011;62384;53.600;10.040;2022-12-31T03:05:16;5.53;;;2.92;;
74042;SDS011;62384;53.600;10.040;2022-12-31T03:07:43;6.60;;;3.30;;
74042;SDS011;62384;53.600;10.040;2022-12-31T03:10:09;10.70;;;4.20;;
74042;SDS011;62384;53.600;10.040;2022-12-31T03:12:35;8.75;;;3.67;;
74042;SDS011;62384;53.600;10.040;2022-12-31T03:15:11;6.90;;;3.33;;
74042;SDS011;62384;53.600;10.040;2022-12-31T03:20:19;6.30;;;3.47;;
74042;SDS011;62384;53.600;10.040;2022-12-31T03:23:07;6.68;;;2.97;;
74042;SDS011;62384;53.600;10.040;2022-12-31T03:25:35;5.18;;;2.80;;
74042;SDS011;62384;53.600;10.040;2022-12-31T03:28:03;7.53;;;2.70;;
74042;SDS011;62384;53.600;10.040;2022-12-31T03:30:31;5.30;;;2.85;;
74042;SDS011;62384;53.600;10.040;2022-12-31T03:32:57;6.10;;;2.85;;
74042;SDS011;62384;53.600;10.040;2022-12-31T03:35:23;11.38;;;3.80;;
74042;SDS011;62384;53.600;10.040;2022-12-31T03:37:51;6.43;;;3.13;;
74042;SDS011;62384;53.600;10.040;2022-12-31T03:40:17;5.90;;;2.67;;
74042;SDS011;62384;53.600;10.040;2022-12-31T03:42:44;4.85;;;2.42;;
74042;SDS011;62384;53.600;10.040;2022-12-31T03:45:10;7.78;;;3.08;;
74042;SDS011;62384;53.600;10.040;2022-12-31T03:47:36;6.80;;;3.08;;
74042;SDS011;62384;53.600;10.040;2022-12-31T03:50:02;4.40;;;2.38;;
74042;SDS011;62384;53.600;10.040;2022-12-31T03:52:27;4.43;;;2.20;;
74042;SDS011;62384;53.600;10.040;2022-12-31T03:54:52;5.93;;;2.58;;
74042;SDS011;62384;53.600;10.040;2022-12-31T03:57:18;7.15;;;2.75;;
74042;SDS011;62384;53.600;10.040;2022-12-31T03:59:43;4.93;;;2.03;;
74042;SDS011;62384;53.600;10.040;2022-12-31T04:02:08;6.00;;;2.10;;
74042;SDS011;62384;53.600;10.040;2022-12-31T04:04:33;4.68;;;2.35;;
74042;SDS011;62384;53.600;10.040;2022-12-31T04:06:59;6.72;;;2.30;;
74042;SDS011;62384;53.600;10.040;2022-12-31T04:09:24;6.97;;;3.10;;
74042;SDS011;62384;53.600;10.040;2022-12-31T04:11:49;5.53;;;2.50;;
74042;SDS011;62384;53.600;10.040;2022-12-31T04:14:14;5.38;;;3.00;;
74042;SDS011;62384;53.600;10.040;2022-12-31T04:16:41;5.35;;;2.60;;
74042;SDS011;62384;53.600;10.040;2022-12-31T04:19:07;8.02;;;3.33;;
74042;SDS011;62384;53.600;10.040;2022-12-31T04:21:32;6.30;;;2.90;;
74042;SDS011;62384;53.600;10.040;2022-12-31T04:23:57;8.10;;;4.38;;
74042;SDS011;62384;53.600;10.040;2022-12-31T04:26:22;8.95;;;3.63;;
74042;SDS011;62384;53.600;10.040;2022-12-31T04:28:47;8.77;;;3.88;;
74042;SDS011;62384;53.600;10.040;2022-12-31T04:31:13;7.57;;;3.90;;
74042;SDS011;62384;53.600;10.040;2022-12-31T04:33:38;6.10;;;4.03;;
74042;SDS011;62384;53.600;10.040;2022-12-31T04:36:04;7.15;;;3.47;;
74042;SDS011;62384;53.600;10.040;2022-12-31T04:38:31;7.93;;;4.43;;
74042;SDS011;62384;53.600;10.040;2022-12-31T04:40:57;8.55;;;4.40;;
74042;SDS011;62384;53.600;10.040;2022-12-31T04:43:42;9.25;;;4.05;;
74042;SDS011;62384;53.600;10.040;2022-12-31T04:46:08;7.75;;;4.13;;
74042;SDS011;62384;53.600;10.040;2022-12-31T04:48:34;9.18;;;4.07;;
74042;SDS011;62384;53.600;10.040;2022-12-31T04:50:59;9.82;;;4.00;;
74042;SDS011;62384;53.600;10.040;2022-12-31T04:53:25;9.57;;;4.18;;
74042;SDS011;62384;53.600;10.040;2022-12-31T04:55:50;6.43;;;3.38;;
74042;SDS011;62384;53.600;10.040;2022-12-31T04:58:16;6.65;;;3.13;;
74042;SDS011;62384;53.600;10.040;2022-12-31T05:00:41;5.50;;;2.40;;
74042;SDS011;62384;53.600;10.040;2022-12-31T05:03:08;4.45;;;2.55;;
74042;SDS011;62384;53.600;10.040;2022-12-31T05:05:37;5.45;;;2.63;;
74042;SDS011;62384;53.600;10.040;2022-12-31T05:08:02;3.83;;;2.38;;
74042;SDS011;62384;53.600;10.040;2022-12-31T05:10:28;3.85;;;2.25;;
74042;SDS011;62384;53.600;10.040;2022-12-31T05:12:53;3.58;;;2.58;;
74042;SDS011;62384;53.600;10.040;2022-12-31T05:15:18;4.97;;;2.70;;
74042;SDS011;62384;53.600;10.040;2022-12-31T05:17:43;4.57;;;2.63;;
74042;SDS011;62384;53.600;10.040;2022-12-31T05:20:09;5.43;;;2.15;;
74042;SDS011;62384;53.600;10.040;2022-12-31T05:22:34;4.57;;;1.90;;
74042;SDS011;62384;53.600;10.040;2022-12-31T05:24:59;4.00;;;2.20;;
74042;SDS011;62384;53.600;10.040;2022-12-31T05:27:25;4.65;;;2.05;;
74042;SDS011;62384;53.600;10.040;2022-12-31T05:29:51;1.98;;;1.58;;
74042;SDS011;62384;53.600;10.040;2022-12-31T05:32:16;2.55;;;1.63;;
74042;SDS011;62384;53.600;10.040;2022-12-31T05:34:42;2.70;;;1.80;;
74042;SDS011;62384;53.600;10.040;2022-12-31T05:37:07;4.72;;;1.83;;
74042;SDS011;62384;53.600;10.040;2022-12-31T05:39:33;2.67;;;1.67;;
74042;SDS011;62384;53.600;10.040;2022-12-31T05:41:58;2.60;;;1.50;;
74042;SDS011;62384;53.600;10.040;2022-12-31T05:44:23;2.13;;;1.50;;
74042;SDS011;62384;53.600;10.040;2022-12-31T05:46:48;2.28;;;1.60;;
74042;SDS011;62384;53.600;10.040;2022-12-31T05:49:14;4.32;;;1.50;;
74042;SDS011;62384;53.600;10.040;2022-12-31T05:51:39;1.63;;;1.25;;
74042;SDS011;62384;53.600;10.040;2022-12-31T05:54:04;2.85;;;1.48;;
74042;SDS011;62384;53.600;10.040;2022-12-31T05:56:30;1.33;;;1.02;;
74042;SDS011;62384;53.600;10.040;2022-12-31T05:58:55;1.65;;;1.40;;
74042;SDS011;62384;53.600;10.040;2022-12-31T06:01:20;1.80;;;1.30;;
74042;SDS011;62384;53.600;10.040;2022-12-31T06:03:46;3.80;;;1.42;;
74042;SDS011;62384;53.600;10.040;2022-12-31T06:06:11;1.90;;;1.40;;
74042;SDS011;62384;53.600;10.040;2022-12-31T06:08:37;1.63;;;1.20;;
74042;SDS011;62384;53.600;10.040;2022-12-31T06:11:02;2.25;;;1.33;;
74042;SDS011;62384;53.600;10.040;2022-12-31T06:13:27;2.22;;;1.30;;
74042;SDS011;62384;53.600;10.040;2022-12-31T06:15:53;1.40;;;1.00;;
74042;SDS011;62384;53.600;10.040;2022-12-31T06:18:18;1.90;;;1.17;;
74042;SDS011;62384;53.600;10.040;2022-12-31T06:20:43;2.03;;;1.02;;
74042;SDS011;62384;53.600;10.040;2022-12-31T06:23:08;3.28;;;1.58;;
74042;SDS011;62384;53.600;10.040;2022-12-31T06:25:34;2.65;;;0.80;;
74042;SDS011;62384;53.600;10.040;2022-12-31T06:28:00;3.40;;;0.80;;
74042;SDS011;62384;53.600;10.040;2022-12-31T06:30:26;3.60;;;1.02;;
74042;SDS011;62384;53.600;10.040;2022-12-31T06:32:51;0.77;;;0.65;;
74042;SDS011;62384;53.600;10.040;2022-12-31T06:35:16;1.25;;;0.82;;
74042;SDS011;62384;53.600;10.040;2022-12-31T06:37:42;2.08;;;0.90;;
74042;SDS011;62384;53.600;10.040;2022-12-31T06:40:07;0.88;;;0.60;;
74042;SDS011;62384;53.600;10.040;2022-12-31T06:42:33;1.10;;;0.80;;
74042;SDS011;62384;53.600;10.040;2022-12-31T06:44:58;0.70;;;0.50;;
74042;SDS011;62384;53.600;10.040;2022-12-31T06:47:24;0.73;;;0.60;;
74042;SDS011;62384;53.600;10.040;2022-12-31T06:49:49;0.40;;;0.30;;
74042;SDS011;62384;53.600;10.040;2022-12-31T06:52:15;0.35;;;0.30;;
74042;SDS011;62384;53.600;10.040;2022-12-31T06:54:41;2.05;;;0.93;;
74042;SDS011;62384;53.600;10.040;2022-12-31T06:57:07;0.40;;;0.40;;
74042;SDS011;62384;53.600;10.040;2022-12-31T06:59:34;0.40;;;0.40;;
74042;SDS011;62384;53.600;10.040;2022-12-31T07:04:50;1.00;;;0.50;;
74042;SDS011;62384;53.600;10.040;2022-12-31T07:07:44;0.40;;;0.40;;
74042;SDS011;62384;53.600;10.040;2022-12-31T07:10:36;0.47;;;0.40;;
74042;SDS011;62384;53.600;10.040;2022-12-31T07:16:00;2.10;;;0.43;;
74042;SDS011;62384;53.600;10.040;2022-12-31T07:18:49;0.88;;;0.52;;
74042;SDS011;62384;53.600;10.040;2022-12-31T07:21:25;3.45;;;0.65;;
74042;SDS011;62384;53.600;10.040;2022-12-31T07:23:57;1.05;;;0.75;;
74042;SDS011;62384;53.600;10.040;2022-12-31T07:29:05;0.70;;;0.40;;
74042;SDS011;62384;53.600;10.040;2022-12-31T07:31:56;0.50;;;0.40;;
74042;SDS011;62384;53.600;10.040;2022-12-31T07:34:48;0.90;;;0.65;;
74042;SDS011;62384;53.600;10.040;2022-12-31T07:37:37;0.60;;;0.38;;
74042;SDS011;62384;53.600;10.040;2022-12-31T07:45:31;0.77;;;0.35;;
74042;SDS011;62384;53.600;10.040;2022-12-31T07:48:10;0.50;;;0.50;;
74042;SDS011;62384;53.600;10.040;2022-12-31T07:50:44;0.43;;;0.35;;
74042;SDS011;62384;53.600;10.040;2022-12-31T07:53:10;0.60;;;0.43;;
74042;SDS011;62384;53.600;10.040;2022-12-31T07:55:36;0.57;;;0.40;;
74042;SDS011;62384;53.600;10.040;2022-12-31T07:58:03;0.93;;;0.57;;
74042;SDS011;62384;53.600;10.040;2022-12-31T08:00:38;2.00;;;0.50;;
74042;SDS011;62384;53.600;10.040;2022-12-31T08:03:15;0.45;;;0.45;;
74042;SDS011;62384;53.600;10.040;2022-12-31T08:08:46;1.08;;;0.50;;
74042;SDS011;62384;53.600;10.040;2022-12-31T08:14:16;0.50;;;0.38;;
74042;SDS011;62384;53.600;10.040;2022-12-31T08:16:43;1.25;;;0.30;;
74042;SDS011;62384;53.600;10.040;2022-12-31T08:19:22;1.40;;;0.30;;
74042;SDS011;62384;53.600;10.040;2022-12-31T08:32:51;1.00;;;0.60;;
74042;SDS011;62384;53.600;10.040;2022-12-31T08:35:23;1.05;;;0.60;;
74042;SDS011;62384;53.600;10.040;2022-12-31T08:46:26;1.63;;;1.08;;
74042;SDS011;62384;53.600;10.040;2022-12-31T08:48:55;3.55;;;0.98;;
74042;SDS011;62384;53.600;10.040;2022-12-31T08:51:21;1.30;;;0.90;;
74042;SDS011;62384;53.600;10.040;2022-12-31T08:53:48;1.38;;;0.88;;
74042;SDS011;62384;53.600;10.040;2022-12-31T09:02:17;2.20;;;0.60;;
74042;SDS011;62384;53.600;10.040;2022-12-31T09:10:24;1.48;;;0.88;;
74042;SDS011;62384;53.600;10.040;2022-12-31T09:15:40;1.45;;;0.93;;
74042;SDS011;62384;53.600;10.040;2022-12-31T09:18:21;2.42;;;1.10;;
74042;SDS011;62384;53.600;10.040;2022-12-31T09:20:48;7.65;;;1.20;;
74042;SDS011;62384;53.600;10.040;2022-12-31T09:23:14;1.55;;;1.00;;
74042;SDS011;62384;53.600;10.040;2022-12-31T09:25:41;1.98;;;1.42;;
74042;SDS011;62384;53.600;10.040;2022-12-31T09:28:17;2.03;;;1.10;;
74042;SDS011;62384;53.600;10.040;2022-12-31T09:30:49;3.47;;;1.50;;
74042;SDS011;62384;53.600;10.040;2022-12-31T09:36:00;3.63;;;1.27;;
74042;SDS011;62384;53.600;10.040;2022-12-31T09:38:30;2.50;;;1.50;;
74042;SDS011;62384;53.600;10.040;2022-12-31T09:41:12;3.17;;;1.63;;
74042;SDS011;62384;53.600;10.040;2022-12-31T09:50:21;2.53;;;1.45;;
74042;SDS011;62384;53.600;10.040;2022-12-31T09:55:55;2.85;;;1.70;;
74042;SDS011;62384;53.600;10.040;2022-12-31T09:58:50;1.63;;;1.30;;
74042;SDS011;62384;53.600;10.040;2022-12-31T10:01:49;2.78;;;1.67;;
74042;SDS011;62384;53.600;10.040;2022-12-31T10:07:22;3.58;;;1.98;;
74042;SDS011;62384;53.600;10.040;2022-12-31T10:10:04;3.28;;;1.67;;
74042;SDS011;62384;53.600;10.040;2022-12-31T10:18:27;2.58;;;1.60;;
74042;SDS011;62384;53.600;10.040;2022-12-31T10:21:17;1.95;;;1.02;;
74042;SDS011;62384;53.600;10.040;2022-12-31T10:23:53;3.88;;;1.50;;
74042;SDS011;62384;53.600;10.040;2022-12-31T10:26:42;2.58;;;1.73;;
74042;SDS011;62384;53.600;10.040;2022-12-31T10:29:24;2.17;;;1.42;;
74042;SDS011;62384;53.600;10.040;2022-12-31T10:38:13;3.45;;;1.60;;
74042;SDS011;62384;53.600;10.040;2022-12-31T10:43:49;1.92;;;1.00;;
74042;SDS011;62384;53.600;10.040;2022-12-31T10:46:44;2.10;;;1.00;;
74042;SDS011;62384;53.600;10.040;2022-12-31T10:49:30;0.95;;;0.52;;
74042;SDS011;62384;53.600;10.040;2022-12-31T10:55:27;2.05;;;0.85;;
74042;SDS011;62384;53.600;10.040;2022-12-31T11:01:17;1.85;;;0.82;;
74042;SDS011;62384;53.600;10.040;2022-12-31T11:04:09;1.95;;;0.63;;
74042;SDS011;62384;53.600;10.040;2022-12-31T11:06:48;0.93;;;0.50;;
74042;SDS011;62384;53.600;10.040;2022-12-31T11:09:33;0.73;;;0.50;;
74042;SDS011;62384;53.600;10.040;2022-12-31T11:12:26;0.85;;;0.60;;
74042;SDS011;62384;53.600;10.040;2022-12-31T11:15:21;1.38;;;0.88;;
74042;SDS011;62384;53.600;10.040;2022-12-31T11:18:12;1.20;;;0.93;;
74042;SDS011;62384;53.600;10.040;2022-12-31T11:24:00;0.90;;;0.50;;
74042;SDS011;62384;53.600;10.040;2022-12-31T11:32:05;1.05;;;0.60;;
74042;SDS011;62384;53.600;10.040;2022-12-31T11:37:30;1.30;;;0.80;;
74042;SDS011;62384;53.600;10.040;2022-12-31T11:43:36;3.13;;;0.60;;
74042;SDS011;62384;53.600;10.040;2022-12-31T11:49:10;1.30;;;1.08;;
74042;SDS011;62384;53.600;10.040;2022-12-31T11:59:55;0.80;;;0.70;;
74042;SDS011;62384;53.600;10.040;2022-12-31T12:04:52;1.88;;;0.70;;
74042;SDS011;62384;53.600;10.040;2022-12-31T12:07:20;0.90;;;0.90;;
74042;SDS011;62384;53.600;10.040;2022-12-31T12:09:48;0.80;;;0.68;;
74042;SDS011;62384;53.600;10.040;2022-12-31T12:12:15;1.40;;;0.90;;
74042;SDS011;62384;53.600;10.040;2022-12-31T12:14:41;1.00;;;0.88;;
74042;SDS011;62384;53.600;10.040;2022-12-31T12:17:14;1.98;;;0.80;;
74042;SDS011;62384;53.600;10.040;2022-12-31T12:19:52;2.03;;;0.50;;
74042;SDS011;62384;53.600;10.040;2022-12-31T12:22:20;0.77;;;0.55;;
74042;SDS011;62384;53.600;10.040;2022-12-31T12:24:54;1.90;;;0.70;;
74042;SDS011;62384;53.600;10.040;2022-12-31T12:27:21;1.27;;;0.60;;
74042;SDS011;62384;53.600;10.040;2022-12-31T12:29:48;0.68;;;0.50;;
74042;SDS011;62384;53.600;10.040;2022-12-31T12:32:14;1.48;;;0.60;;
74042;SDS011;62384;53.600;10.040;2022-12-31T12:34:42;2.03;;;0.50;;
74042;SDS011;62384;53.600;10.040;2022-12-31T12:40:00;0.32;;;0.32;;
74042;SDS011;62384;53.600;10.040;2022-12-31T12:42:29;0.50;;;0.43;;
74042;SDS011;62384;53.600;10.040;2022-12-31T12:45:03;0.75;;;0.52;;
74042;SDS011;62384;53.600;10.040;2022-12-31T12:47:31;0.82;;;0.38;;
74042;SDS011;62384;53.600;10.040;2022-12-31T12:49:58;2.42;;;0.60;;
74042;SDS011;62384;53.600;10.040;2022-12-31T13:15:15;3.30;;;0.60;;
74042;SDS011;62384;53.600;10.040;2022-12-31T13:20:44;0.82;;;0.70;;
74042;SDS011;62384;53.600;10.040;2022-12-31T13:23:32;4.50;;;0.60;;
74042;SDS011;62384;53.600;10.040;2022-12-31T13:26:25;0.75;;;0.60;;
74042;SDS011;62384;53.600;10.040;2022-12-31T13:29:01;1.67;;;0.90;;
74042;SDS011;62384;53.600;10.040;2022-12-31T13:31:29;1.45;;;0.85;;
74042;SDS011;62384;53.600;10.040;2022-12-31T13:34:00;2.85;;;0.70;;
74042;SDS011;62384;53.600;10.040;2022-12-31T13:39:11;1.58;;;0.60;;
74042;SDS011;62384;53.600;10.040;2022-12-31T13:41:42;1.58;;;0.70;;
74042;SDS011;62384;53.600;10.040;2022-12-31T13:44:29;2.80;;;0.73;;
74042;SDS011;62384;53.600;10.040;2022-12-31T13:49:47;1.63;;;1.00;;
74042;SDS011;62384;53.600;10.040;2022-12-31T13:52:29;1.83;;;1.10;;
74042;SDS011;62384;53.600;10.040;2022-12-31T13:55:08;1.52;;;0.90;;
74042;SDS011;62384;53.600;10.040;2022-12-31T14:00:13;1.38;;;0.88;;
74042;SDS011;62384;53.600;10.040;2022-12-31T14:02:51;1.65;;;0.70;;
74042;SDS011;62384;53.600;10.040;2022-12-31T14:05:51;1.15;;;0.98;;
74042;SDS011;62384;53.600;10.040;2022-12-31T14:08:21;4.05;;;1.17;;
74042;SDS011;62384;53.600;10.040;2022-12-31T14:21:51;3.33;;;1.10;;
74042;SDS011;62384;53.600;10.040;2022-12-31T14:27:07;1.80;;;1.02;;
74042;SDS011;62384;53.600;10.040;2022-12-31T14:32:11;7.25;;;2.30;;
74042;SDS011;62384;53.600;10.040;2022-12-31T14:35:00;2.97;;;1.80;;
74042;SDS011;62384;53.600;10.040;2022-12-31T14:51:09;2.55;;;1.83;;
74042;SDS011;62384;53.600;10.040;2022-12-31T14:53:36;3.28;;;1.52;;
74042;SDS011;62384;53.600;10.040;2022-12-31T14:56:26;2.83;;;2.20;;
74042;SDS011;62384;53.600;10.040;2022-12-31T14:58:56;2.67;;;1.63;;
74042;SDS011;62384;53.600;10.040;2022-12-31T15:01:26;3.40;;;1.65;;
74042;SDS011;62384;53.600;10.040;2022-12-31T15:03:53;4.88;;;2.35;;
74042;SDS011;62384;53.600;10.040;2022-12-31T15:09:08;3.22;;;1.85;;
74042;SDS011;62384;53.600;10.040;2022-12-31T15:17:33;4.70;;;2.20;;
74042;SDS011;62384;53.600;10.040;2022-12-31T15:20:24;6.85;;;3.40;;
74042;SDS011;62384;53.600;10.040;2022-12-31T15:23:00;4.63;;;2.10;;
74042;SDS011;62384;53.600;10.040;2022-12-31T15:27:56;3.67;;;2.28;;
74042;SDS011;62384;53.600;10.040;2022-12-31T15:30:30;6.18;;;2.42;;
74042;SDS011;62384;53.600;10.040;2022-12-31T15:33:03;4.93;;;2.63;;
74042;SDS011;62384;53.600;10.040;2022-12-31T15:35:46;3.67;;;2.08;;
74042;SDS011;62384;53.600;10.040;2022-12-31T15:40:48;5.17;;;2.43;;
74042;SDS011;62384;53.600;10.040;2022-12-31T15:45:55;7.50;;;2.78;;
74042;SDS011;62384;53.600;10.040;2022-12-31T15:48:23;4.28;;;2.38;;
74042;SDS011;62384;53.600;10.040;2022-12-31T15:50:50;6.55;;;3.08;;
74042;SDS011;62384;53.600;10.040;2022-12-31T15:53:24;4.07;;;2.03;;
74042;SDS011;62384;53.600;10.040;2022-12-31T15:55:57;6.05;;;2.25;;
74042;SDS011;62384;53.600;10.040;2022-12-31T15:58:30;6.35;;;2.20;;
74042;SDS011;62384;53.600;10.040;2022-12-31T16:03:46;6.43;;;2.58;;
74042;SDS011;62384;53.600;10.040;2022-12-31T16:06:13;8.30;;;3.20;;
74042;SDS011;62384;53.600;10.040;2022-12-31T16:08:43;4.85;;;2.80;;
74042;SDS011;62384;53.600;10.040;2022-12-31T16:11:11;5.40;;;2.67;;
74042;SDS011;62384;53.600;10.040;2022-12-31T16:13:41;7.10;;;2.85;;
74042;SDS011;62384;53.600;10.040;2022-12-31T16:16:23;5.82;;;2.65;;
74042;SDS011;62384;53.600;10.040;2022-12-31T16:18:50;6.50;;;2.70;;
74042;SDS011;62384;53.600;10.040;2022-12-31T16:21:36;6.07;;;2.38;;
74042;SDS011;62384;53.600;10.040;2022-12-31T16:24:03;6.47;;;2.40;;
74042;SDS011;62384;53.600;10.040;2022-12-31T16:26:48;6.95;;;2.90;;
74042;SDS011;62384;53.600;10.040;2022-12-31T16:29:17;14.02;;;7.35;;
74042;SDS011;62384;53.600;10.040;2022-12-31T16:31:44;29.92;;;11.23;;
74042;SDS011;62384;53.600;10.040;2022-12-31T16:34:14;9.68;;;4.82;;
74042;SDS011;62384;53.600;10.040;2022-12-31T16:36:41;13.27;;;6.57;;
74042;SDS011;62384;53.600;10.040;2022-12-31T16:41:50;25.60;;;12.30;;
74042;SDS011;62384;53.600;10.040;2022-12-31T16:44:24;21.33;;;9.85;;
74042;SDS011;62384;53.600;10.040;2022-12-31T16:46:57;11.50;;;5.30;;
74042;SDS011;62384;53.600;10.040;2022-12-31T16:49:25;11.95;;;4.65;;
74042;SDS011;62384;53.600;10.040;2022-12-31T16:51:54;13.30;;;4.40;;
74042;SDS011;62384;53.600;10.040;2022-12-31T16:54:27;9.80;;;4.93;;
74042;SDS011;62384;53.600;10.040;2022-12-31T16:56:55;19.15;;;9.30;;
74042;SDS011;62384;53.600;10.040;2022-12-31T16:59:27;16.38;;;6.75;;
74042;SDS011;62384;53.600;10.040;2022-12-31T17:02:13;14.73;;;4.65;;
74042;SDS011;62384;53.600;10.040;2022-12-31T17:04:45;16.70;;;6.35;;
74042;SDS011;62384;53.600;10.040;2022-12-31T17:12:30;25.98;;;11.02;;
74042;SDS011;62384;53.600;10.040;2022-12-31T17:15:02;23.00;;;8.75;;
74042;SDS011;62384;53.600;10.040;2022-12-31T17:17:30;22.15;;;8.60;;
74042;SDS011;62384;53.600;10.040;2022-12-31T17:19:59;20.98;;;8.63;;
74042;SDS011;62384;53.600;10.040;2022-12-31T17:28:01;14.50;;;7.18;;
74042;SDS011;62384;53.600;10.040;2022-12-31T17:33:00;22.25;;;9.95;;
74042;SDS011;62384;53.600;10.040;2022-12-31T17:35:27;19.05;;;8.18;;
74042;SDS011;62384;53.600;10.040;2022-12-31T17:38:17;26.23;;;10.75;;
74042;SDS011;62384;53.600;10.040;2022-12-31T17:40:42;27.33;;;12.75;;
74042;SDS011;62384;53.600;10.040;2022-12-31T17:43:12;33.45;;;13.10;;
74042;SDS011;62384;53.600;10.040;2022-12-31T17:45:39;23.90;;;10.57;;
74042;SDS011;62384;53.600;10.040;2022-12-31T17:48:08;51.22;;;21.65;;
74042;SDS011;62384;53.600;10.040;2022-12-31T17:50:36;24.13;;;10.65;;
74042;SDS011;62384;53.600;10.040;2022-12-31T17:53:11;19.15;;;9.43;;
74042;SDS011;62384;53.600;10.040;2022-12-31T17:55:37;26.27;;;11.27;;
74042;SDS011;62384;53.600;10.040;2022-12-31T17:58:04;26.08;;;11.23;;
74042;SDS011;62384;53.600;10.040;2022-12-31T18:00:30;39.22;;;17.98;;
74042;SDS011;62384;53.600;10.040;2022-12-31T18:02:57;101.60;;;44.35;;
74042;SDS011;62384;53.600;10.040;2022-12-31T18:05:23;51.40;;;21.20;;
74042;SDS011;62384;53.600;10.040;2022-12-31T18:07:49;30.23;;;13.73;;
74042;SDS011;62384;53.600;10.040;2022-12-31T18:10:15;28.23;;;13.38;;
74042;SDS011;62384;53.600;10.040;2022-12-31T18:12:43;31.10;;;13.38;;
74042;SDS011;62384;53.600;10.040;2022-12-31T18:15:13;26.65;;;12.18;;
74042;SDS011;62384;53.600;10.040;2022-12-31T18:17:43;31.10;;;12.23;;
74042;SDS011;62384;53.600;10.040;2022-12-31T18:20:08;29.92;;;12.60;;
74042;SDS011;62384;53.600;10.040;2022-12-31T18:22:34;30.35;;;13.77;;
74042;SDS011;62384;53.600;10.040;2022-12-31T18:25:01;32.67;;;15.52;;
74042;SDS011;62384;53.600;10.040;2022-12-31T18:27:27;35.42;;;15.38;;
74042;SDS011;62384;53.600;10.040;2022-12-31T18:29:54;38.22;;;17.92;;
74042;SDS011;62384;53.600;10.040;2022-12-31T18:32:21;31.40;;;11.85;;
74042;SDS011;62384;53.600;10.040;2022-12-31T18:34:47;19.88;;;8.52;;
74042;SDS011;62384;53.600;10.040;2022-12-31T18:37:13;19.65;;;8.57;;
74042;SDS011;62384;53.600;10.040;2022-12-31T18:39:39;16.52;;;6.97;;
74042;SDS011;62384;53.600;10.040;2022-12-31T18:42:04;16.65;;;7.82;;
74042;SDS011;62384;53.600;10.040;2022-12-31T18:44:31;19.30;;;8.05;;
74042;SDS011;62384;53.600;10.040;2022-12-31T18:46:57;16.52;;;7.03;;
74042;SDS011;62384;53.600;10.040;2022-12-31T18:49:22;17.35;;;7.43;;
74042;SDS011;62384;53.600;10.040;2022-12-31T18:51:48;13.45;;;7.68;;
74042;SDS011;62384;53.600;10.040;2022-12-31T18:54:18;19.60;;;6.80;;
74042;SDS011;62384;53.600;10.040;2022-12-31T18:56:44;17.95;;;6.43;;